Time;durP1;ratioP1;P1;durP2;ratioP2;P2;SDS_P1;SDS_P2;PMS_P1;PMS_P2;Temp;Humidity;BMP_temperature;BMP_pressure;BME280_temperature;BME280_humidity;BME280_pressure;Samples;Min_cycle;Max_cycle;Signal;HPM_P1;HPM_P2
2022/08/03 00:00:48;;;;;;;8.73;8.03;;;21.30;99.90;;;;;;5095988;28;20480;-75
2022/08/03 00:03:37;;;;;;;7.97;7.37;;;21.30;99.90;;;;;;5099257;28;20513;-75
2022/08/03 00:06:25;;;;;;;7.37;6.90;;;21.30;99.90;;;;;;5106401;28;20488;-74
2022/08/03 00:09:14;;;;;;;8.27;7.57;;;21.20;99.90;;;;;;5103672;28;20502;-74
2022/08/03 00:12:03;;;;;;;8.27;7.67;;;21.10;99.90;;;;;;5107454;27;21130;-74
2022/08/03 00:14:51;;;;;;;8.20;7.70;;;21.10;99.90;;;;;;5103009;28;20448;-74
2022/08/03 00:17:41;;;;;;;8.23;7.73;;;21.00;99.90;;;;;;5096528;28;20505;-74
2022/08/03 00:20:41;;;;;;;9.00;8.30;;;21.00;99.90;;;;;;5100817;28;20971;-75
2022/08/03 00:23:30;;;;;;;8.70;8.03;;;20.90;99.90;;;;;;5101897;28;20543;-75
2022/08/03 00:26:39;;;;;;;8.40;7.80;;;20.90;99.90;;;;;;5101543;28;20488;-75
2022/08/03 00:29:28;;;;;;;8.73;8.13;;;20.90;99.90;;;;;;5103680;28;20894;-75
2022/08/03 00:32:16;;;;;;;8.63;8.00;;;20.80;99.90;;;;;;5102539;28;20540;-75
2022/08/03 00:35:07;;;;;;;7.90;7.40;;;20.80;99.90;;;;;;5104445;28;21062;-74
2022/08/03 00:38:00;;;;;;;8.77;8.10;;;20.70;99.90;;;;;;5104448;27;20579;-75
2022/08/03 00:40:48;;;;;;;8.80;8.20;;;20.70;99.90;;;;;;5103429;28;20471;-74
2022/08/03 00:43:38;;;;;;;8.07;7.57;;;20.70;99.90;;;;;;5100713;28;20543;-75
2022/08/03 00:46:26;;;;;;;8.57;7.97;;;20.70;99.90;;;;;;5100369;27;21055;-75
2022/08/03 00:49:14;;;;;;;9.20;8.60;;;20.60;99.90;;;;;;5096817;27;20480;-75
2022/08/03 00:52:03;;;;;;;8.73;8.03;;;20.60;99.90;;;;;;5099142;28;20478;-74
2022/08/03 00:54:56;;;;;;;9.00;8.40;;;20.60;99.90;;;;;;5108077;28;20463;-75
2022/08/03 00:57:46;;;;;;;8.93;8.23;;;20.50;99.90;;;;;;5103453;27;21019;-74
2022/08/03 01:00:37;;;;;;;8.40;7.73;;;20.50;99.90;;;;;;5098684;27;20657;-74
2022/08/03 01:03:25;;;;;;;8.43;7.90;;;20.40;99.90;;;;;;5099628;27;20443;-74
2022/08/03 01:06:18;;;;;;;8.10;7.50;;;20.40;99.90;;;;;;5103498;27;20448;-75
2022/08/03 01:09:13;;;;;;;8.40;7.80;;;20.30;99.90;;;;;;5095819;27;20585;-74
2022/08/03 01:12:10;;;;;;;8.40;7.80;;;20.30;99.90;;;;;;5100938;27;20490;-73
2022/08/03 01:15:07;;;;;;;9.00;8.30;;;20.30;99.90;;;;;;5098611;27;20548;-73
2022/08/03 01:18:03;;;;;;;7.83;7.33;;;20.30;99.90;;;;;;5099133;27;21038;-74
2022/08/03 01:20:56;;;;;;;8.07;7.47;;;20.40;99.90;;;;;;5099965;27;21075;-73
2022/08/03 01:23:58;;;;;;;7.80;7.30;;;20.40;99.90;;;;;;5103666;27;20535;-73
2022/08/03 01:27:05;;;;;;;9.07;8.33;;;20.50;99.90;;;;;;5100403;27;20443;-73
2022/08/03 01:30:04;;;;;;;8.40;7.80;;;20.50;99.90;;;;;;5097462;27;20951;-74
2022/08/03 01:32:58;;;;;;;9.20;8.50;;;20.50;99.90;;;;;;5098773;27;20452;-74
2022/08/03 01:36:01;;;;;;;9.23;8.47;;;20.50;99.90;;;;;;5103926;27;20455;-73
2022/08/03 01:38:54;;;;;;;8.73;8.10;;;20.50;99.90;;;;;;5110746;27;20577;-73
2022/08/03 01:41:47;;;;;;;9.40;8.60;;;20.50;99.90;;;;;;5101759;27;20470;-74
2022/08/03 01:44:40;;;;;;;9.20;8.60;;;20.50;99.90;;;;;;5102611;27;20444;-73
2022/08/03 01:47:31;;;;;;;8.97;8.17;;;20.50;99.90;;;;;;5101720;27;20556;-73
2022/08/03 01:50:23;;;;;;;8.93;8.23;;;20.50;99.90;;;;;;5106160;28;21089;-76
2022/08/03 01:53:14;;;;;;;8.40;7.90;;;20.50;99.90;;;;;;5108090;28;20448;-74
2022/08/03 01:56:04;;;;;;;8.23;7.70;;;20.40;99.90;;;;;;5100632;28;20440;-74
2022/08/03 01:58:54;;;;;;;8.23;7.73;;;20.40;99.90;;;;;;5103828;28;20974;-76
2022/08/03 02:01:44;;;;;;;8.73;8.20;;;20.40;99.90;;;;;;5112530;22;20551;-71
2022/08/03 02:04:56;;;;;;;8.90;8.20;;;20.30;99.90;;;;;;5104255;27;20449;-71
2022/08/03 02:07:46;;;;;;;8.43;7.83;;;20.20;99.90;;;;;;5106027;28;20547;-72
2022/08/03 02:10:36;;;;;;;9.63;8.90;;;20.20;99.90;;;;;;5109814;28;20834;-72
2022/08/03 02:13:26;;;;;;;8.90;8.30;;;20.20;99.90;;;;;;5103046;28;20528;-71
2022/08/03 02:16:14;;;;;;;8.87;8.17;;;20.10;99.90;;;;;;5097194;28;20520;-72
2022/08/03 02:19:06;;;;;;;9.10;8.47;;;20.10;99.90;;;;;;5097055;27;20448;-72
2022/08/03 02:21:59;;;;;;;8.93;8.30;;;20.10;99.90;;;;;;5111116;27;20528;-72
2022/08/03 02:24:49;;;;;;;9.00;8.40;;;20.00;99.90;;;;;;5102378;28;20463;-71
2022/08/03 02:27:42;;;;;;;8.77;7.97;;;20.00;99.90;;;;;;5099692;28;20497;-71
2022/08/03 02:30:36;;;;;;;9.03;8.40;;;19.90;99.90;;;;;;5098857;27;20472;-71
2022/08/03 02:33:28;;;;;;;9.67;8.97;;;19.90;99.90;;;;;;5101460;28;20440;-71
2022/08/03 02:36:20;;;;;;;8.90;8.40;;;19.80;99.90;;;;;;5096407;28;20898;-72
2022/08/03 02:39:13;;;;;;;9.00;8.40;;;19.80;99.90;;;;;;5092392;27;20464;-71
2022/08/03 02:42:02;;;;;;;9.20;8.60;;;19.80;99.90;;;;;;5091902;28;20508;-71
2022/08/03 02:44:53;;;;;;;9.13;8.53;;;19.70;99.90;;;;;;5098300;28;20468;-71
2022/08/03 02:47:44;;;;;;;9.80;9.20;;;19.70;99.90;;;;;;5100081;28;20472;-71
2022/08/03 02:50:44;;;;;;;9.00;8.40;;;19.70;99.90;;;;;;5103022;28;20564;-71
2022/08/03 02:53:34;;;;;;;9.00;8.47;;;19.60;99.90;;;;;;5106567;27;20498;-71
2022/08/03 02:56:25;;;;;;;9.27;8.67;;;19.60;99.90;;;;;;5100807;28;20476;-71
2022/08/03 02:59:14;;;;;;;9.70;9.10;;;19.50;99.90;;;;;;5100262;28;20559;-71
2022/08/03 03:02:03;;;;;;;10.00;9.23;;;19.50;99.90;;;;;;5100284;28;20574;-72
2022/08/03 03:04:53;;;;;;;9.07;8.47;;;19.50;99.90;;;;;;5101666;28;22189;-71
2022/08/03 03:08:01;;;;;;;8.97;8.40;;;19.50;99.90;;;;;;5109597;28;20451;-71
2022/08/03 03:10:54;;;;;;;8.97;8.33;;;19.50;99.90;;;;;;5119402;28;20522;-71
2022/08/03 03:13:46;;;;;;;8.97;8.47;;;19.50;99.90;;;;;;5119740;28;20544;-71
2022/08/03 03:16:35;;;;;;;9.47;8.87;;;19.50;99.90;;;;;;5095539;28;20602;-71
2022/08/03 03:19:25;;;;;;;9.40;8.80;;;19.50;99.90;;;;;;5105030;28;20530;-71
2022/08/03 03:22:14;;;;;;;10.00;9.37;;;19.50;99.90;;;;;;5100041;28;20499;-71
2022/08/03 03:25:03;;;;;;;9.40;8.77;;;19.50;99.90;;;;;;5104769;28;20455;-71
2022/08/03 03:27:52;;;;;;;9.93;9.13;;;19.50;99.90;;;;;;5103028;28;20444;-71
2022/08/03 03:30:42;;;;;;;9.37;8.67;;;19.50;99.90;;;;;;5097774;28;20580;-71
2022/08/03 03:33:30;;;;;;;9.43;8.83;;;19.40;99.90;;;;;;5100314;28;20570;-71
2022/08/03 03:36:19;;;;;;;10.00;9.10;;;19.40;99.90;;;;;;5097853;28;20512;-71
2022/08/03 03:39:07;;;;;;;10.00;9.30;;;19.40;99.90;;;;;;5097719;28;20513;-71
2022/08/03 03:42:04;;;;;;;9.73;9.03;;;19.40;99.90;;;;;;5101251;28;20483;-72
2022/08/03 03:44:52;;;;;;;9.53;8.93;;;19.30;99.90;;;;;;5101966;28;20546;-71
2022/08/03 03:47:42;;;;;;;9.47;8.60;;;19.30;99.90;;;;;;5104012;28;20535;-71
2022/08/03 03:50:31;;;;;;;9.53;8.93;;;19.30;99.90;;;;;;5094434;28;20552;-71
2022/08/03 03:53:20;;;;;;;10.30;9.60;;;19.30;99.90;;;;;;5099281;28;20499;-72
2022/08/03 03:56:08;;;;;;;9.07;8.37;;;19.20;99.90;;;;;;5101067;28;20543;-71
2022/08/03 03:58:57;;;;;;;10.27;9.57;;;19.20;99.90;;;;;;5100197;28;20479;-71
2022/08/03 04:01:45;;;;;;;10.40;9.70;;;19.20;99.90;;;;;;5100241;28;20521;-71
2022/08/03 04:11:08;;;;;;;9.30;8.60;;;19.20;99.90;;;;;;5100694;28;20465;-71
2022/08/03 04:14:01;;;;;;;10.33;9.60;;;19.10;99.90;;;;;;5100452;28;20510;-71
2022/08/03 04:16:53;;;;;;;9.93;9.23;;;19.10;99.90;;;;;;5099441;28;20865;-71
2022/08/03 04:19:50;;;;;;;11.17;10.47;;;19.20;99.90;;;;;;5108168;28;20538;-71
2022/08/03 04:22:40;;;;;;;11.00;10.20;;;19.30;99.90;;;;;;5095957;28;20565;-71
2022/08/03 04:25:32;;;;;;;10.73;10.03;;;19.30;99.90;;;;;;5103009;28;20436;-71
2022/08/03 04:28:24;;;;;;;10.60;9.90;;;19.30;99.90;;;;;;5100449;28;20489;-71
2022/08/03 04:31:21;;;;;;;11.67;10.87;;;19.30;99.90;;;;;;5097186;28;20473;-71
2022/08/03 04:34:10;;;;;;;10.77;9.97;;;19.40;99.90;;;;;;5107922;28;20553;-71
2022/08/03 04:37:05;;;;;;;10.60;9.83;;;19.40;99.90;;;;;;5111321;28;20477;-71
2022/08/03 04:39:58;;;;;;;9.83;9.23;;;19.40;99.90;;;;;;5097053;28;20453;-72
2022/08/03 04:42:48;;;;;;;10.53;9.73;;;19.40;99.90;;;;;;5098634;28;20502;-72
2022/08/03 04:45:38;;;;;;;10.57;9.67;;;19.40;99.90;;;;;;5100848;28;20528;-71
2022/08/03 04:48:27;;;;;;;10.67;9.77;;;19.30;99.90;;;;;;5101629;28;20441;-71
2022/08/03 04:51:16;;;;;;;10.40;9.70;;;19.40;99.90;;;;;;5096934;28;20464;-71
2022/08/03 04:54:06;;;;;;;11.90;11.00;;;19.40;99.90;;;;;;5106657;27;20601;-72
2022/08/03 04:56:54;;;;;;;10.50;9.80;;;19.40;99.90;;;;;;5103455;27;20744;-72
2022/08/03 04:59:42;;;;;;;10.13;9.43;;;19.50;99.90;;;;;;5105500;28;20546;-71
2022/08/03 05:02:31;;;;;;;9.80;9.10;;;19.50;99.90;;;;;;5098971;27;20984;-71
2022/08/03 05:05:19;;;;;;;10.90;10.00;;;19.50;99.90;;;;;;5100793;28;20451;-72
2022/08/03 05:08:10;;;;;;;10.60;9.70;;;19.50;99.90;;;;;;5100316;27;20452;-73
2022/08/03 05:10:59;;;;;;;10.30;9.50;;;19.60;99.90;;;;;;5108558;27;20566;-74
2022/08/03 05:13:48;;;;;;;10.80;10.00;;;19.60;99.90;;;;;;5112882;28;20545;-74
2022/08/03 05:16:36;;;;;;;10.23;9.43;;;19.60;99.90;;;;;;5098802;27;20459;-73
2022/08/03 05:19:25;;;;;;;10.50;9.80;;;19.70;99.90;;;;;;5104156;28;20523;-73
2022/08/03 05:22:13;;;;;;;10.87;10.07;;;19.70;99.90;;;;;;5098051;27;20626;-73
2022/08/03 05:25:02;;;;;;;11.40;10.37;;;19.70;99.90;;;;;;5095512;28;20463;-73
2022/08/03 05:27:52;;;;;;;10.90;10.00;;;19.80;99.90;;;;;;5086676;28;20609;-73
2022/08/03 05:30:40;;;;;;;10.40;9.67;;;19.80;99.90;;;;;;5103070;27;20456;-73
2022/08/03 05:33:28;;;;;;;12.33;11.33;;;19.90;99.90;;;;;;5105367;27;20578;-72
2022/08/03 05:36:17;;;;;;;11.30;10.30;;;19.90;99.90;;;;;;5082085;27;20505;-73
2022/08/03 05:39:05;;;;;;;11.67;10.80;;;20.00;99.90;;;;;;5090553;27;20449;-73
2022/08/03 05:41:54;;;;;;;11.30;10.10;;;20.10;99.90;;;;;;5086536;27;20653;-73
2022/08/03 05:44:43;;;;;;;11.10;10.17;;;20.10;99.90;;;;;;5097799;27;20949;-73
2022/08/03 05:47:31;;;;;;;12.97;11.63;;;20.20;99.90;;;;;;5095137;28;20455;-73
2022/08/03 05:50:20;;;;;;;11.43;10.63;;;20.20;99.90;;;;;;5089122;27;20571;-73
2022/08/03 05:53:09;;;;;;;11.80;10.90;;;20.30;99.90;;;;;;5094562;28;20550;-73
2022/08/03 05:55:57;;;;;;;13.20;10.93;;;20.30;99.90;;;;;;5087606;28;20551;-73
2022/08/03 05:59:02;;;;;;;10.97;10.17;;;20.40;99.90;;;;;;5098196;27;20452;-73
2022/08/03 06:02:12;;;;;;;10.23;9.63;;;20.50;99.90;;;;;;5078211;27;20487;-73
2022/08/03 06:05:00;;;;;;;10.90;10.10;;;20.50;99.90;;;;;;5074727;27;20830;-73
2022/08/03 06:07:49;;;;;;;10.70;9.90;;;20.60;99.90;;;;;;5087363;27;20808;-73
2022/08/03 06:10:37;;;;;;;10.00;9.20;;;20.70;99.90;;;;;;5093448;27;20460;-73
2022/08/03 06:13:25;;;;;;;10.00;9.23;;;20.70;99.90;;;;;;5101926;27;20448;-73
2022/08/03 06:16:14;;;;;;;11.47;10.27;;;20.80;99.90;;;;;;5100064;27;20456;-74
2022/08/03 06:19:04;;;;;;;9.27;8.53;;;20.80;99.90;;;;;;5086803;27;20456;-74
2022/08/03 06:21:52;;;;;;;10.00;9.20;;;20.90;99.90;;;;;;5094639;28;20486;-73
2022/08/03 06:24:41;;;;;;;10.57;9.70;;;21.00;99.90;;;;;;5098821;28;20445;-73
2022/08/03 06:27:40;;;;;;;11.00;9.30;;;21.10;99.90;;;;;;5095228;27;20467;-73
2022/08/03 06:30:28;;;;;;;9.10;8.20;;;21.20;99.90;;;;;;5090649;27;20943;-73
2022/08/03 06:33:17;;;;;;;8.97;7.60;;;21.30;99.90;;;;;;5096140;28;20964;-73
2022/08/03 06:36:07;;;;;;;7.87;7.13;;;21.40;99.90;;;;;;5103842;27;20759;-73
2022/08/03 06:38:59;;;;;;;8.60;7.93;;;21.50;99.90;;;;;;5100265;27;20529;-73
2022/08/03 06:41:48;;;;;;;7.40;6.80;;;21.60;99.90;;;;;;5088434;28;20481;-73
2022/08/03 06:44:37;;;;;;;7.57;6.77;;;21.70;99.90;;;;;;5088500;27;20490;-72
2022/08/03 06:47:25;;;;;;;8.00;7.20;;;21.80;99.90;;;;;;5096525;27;20457;-73
2022/08/03 06:50:13;;;;;;;7.27;6.57;;;21.90;99.90;;;;;;5095636;27;20539;-73
2022/08/03 06:53:07;;;;;;;6.60;6.10;;;21.90;99.90;;;;;;5092828;27;20905;-73
2022/08/03 06:56:05;;;;;;;6.60;6.20;;;22.00;99.90;;;;;;5092736;27;20457;-73
2022/08/03 06:58:54;;;;;;;7.30;6.60;;;22.10;99.90;;;;;;5094969;27;20571;-72
2022/08/03 07:01:42;;;;;;;6.83;6.30;;;22.20;99.90;;;;;;5092691;27;20496;-73
2022/08/03 07:04:30;;;;;;;7.30;6.57;;;22.40;99.90;;;;;;5096811;27;20560;-73
2022/08/03 07:07:19;;;;;;;6.27;5.77;;;22.50;99.90;;;;;;5099570;28;20532;-73
2022/08/03 07:10:10;;;;;;;6.70;6.10;;;22.60;99.90;;;;;;5095865;27;20762;-73
2022/08/03 07:12:58;;;;;;;7.10;6.50;;;22.60;99.90;;;;;;5094931;27;20456;-73
2022/08/03 07:15:46;;;;;;;7.27;6.67;;;22.70;99.90;;;;;;5092710;28;20535;-73
2022/08/03 07:18:43;;;;;;;6.90;6.40;;;22.70;99.90;;;;;;5096433;28;20456;-72
2022/08/03 07:21:31;;;;;;;7.33;6.60;;;22.80;99.90;;;;;;5099522;27;20532;-73
2022/08/03 07:24:19;;;;;;;6.70;6.10;;;22.90;99.90;;;;;;5101268;27;20611;-73
2022/08/03 07:27:09;;;;;;;7.30;6.20;;;23.00;99.90;;;;;;5090902;28;20871;-73
2022/08/03 07:29:58;;;;;;;6.80;5.83;;;23.10;99.90;;;;;;5096122;28;20445;-73
2022/08/03 07:32:47;;;;;;;8.40;6.60;;;23.20;99.90;;;;;;5096796;28;20441;-73
2022/08/03 07:35:37;;;;;;;7.07;6.40;;;23.30;99.90;;;;;;5080610;28;20472;-73
2022/08/03 07:38:26;;;;;;;6.50;5.90;;;23.30;99.90;;;;;;5102435;28;20517;-75
2022/08/03 07:41:14;;;;;;;5.80;5.20;;;23.40;99.90;;;;;;5112556;28;20825;-74
2022/08/03 07:44:04;;;;;;;6.80;6.20;;;23.50;99.90;;;;;;5104876;28;20569;-72
2022/08/03 07:46:52;;;;;;;5.60;5.20;;;23.60;99.90;;;;;;5102509;28;21069;-72
2022/08/03 07:49:43;;;;;;;6.07;5.57;;;23.80;99.90;;;;;;5098912;28;20503;-74
2022/08/03 07:52:52;;;;;;;5.47;4.93;;;23.80;99.90;;;;;;5095309;28;21018;-74
2022/08/03 07:55:41;;;;;;;4.83;4.53;;;24.00;99.90;;;;;;5091731;28;20444;-74
2022/08/03 07:58:29;;;;;;;5.20;4.80;;;24.00;99.90;;;;;;5082365;28;20975;-74
2022/08/03 08:01:20;;;;;;;7.43;4.30;;;24.10;99.90;;;;;;5106708;22;20532;-74
2022/08/03 08:04:08;;;;;;;5.10;4.40;;;24.20;99.90;;;;;;5097056;28;20483;-74
2022/08/03 08:06:57;;;;;;;4.33;4.00;;;24.20;99.90;;;;;;5100208;28;20452;-73
2022/08/03 08:09:45;;;;;;;4.50;4.10;;;24.40;99.90;;;;;;5094958;28;20454;-73
2022/08/03 08:12:33;;;;;;;8.23;4.23;;;24.40;99.90;;;;;;5071476;28;20984;-73
2022/08/03 08:15:22;;;;;;;4.60;3.90;;;24.60;99.90;;;;;;5084489;28;20440;-73
2022/08/03 08:18:11;;;;;;;4.07;3.67;;;24.70;99.90;;;;;;5097109;28;20535;-74
2022/08/03 08:21:02;;;;;;;4.27;3.73;;;24.70;99.90;;;;;;5088005;28;20579;-73
2022/08/03 08:23:50;;;;;;;4.23;3.83;;;24.80;99.90;;;;;;5092864;28;21042;-72
2022/08/03 08:26:45;;;;;;;4.27;3.87;;;24.80;99.90;;;;;;5106489;27;20448;-73
2022/08/03 08:29:33;;;;;;;4.37;3.57;;;24.90;99.90;;;;;;5098672;27;20979;-73
2022/08/03 08:32:22;;;;;;;3.53;3.30;;;24.90;99.90;;;;;;5100707;27;20456;-72
2022/08/03 08:35:12;;;;;;;4.87;4.00;;;25.00;99.90;;;;;;5099567;27;21038;-72
2022/08/03 08:38:00;;;;;;;3.57;3.27;;;25.10;99.90;;;;;;5096477;28;21021;-73
2022/08/03 08:40:55;;;;;;;3.77;3.47;;;25.20;99.90;;;;;;5095002;27;22309;-74
2022/08/03 08:43:43;;;;;;;3.60;3.30;;;25.40;99.90;;;;;;5099540;27;20566;-72
2022/08/03 08:46:33;;;;;;;3.10;2.90;;;25.50;99.90;;;;;;5098845;27;20439;-72
2022/08/03 08:49:26;;;;;;;3.40;3.10;;;25.60;99.90;;;;;;5093125;27;20547;-72
2022/08/03 08:52:18;;;;;;;3.40;3.10;;;25.60;99.90;;;;;;5103872;27;20460;-72
2022/08/03 08:55:21;;;;;;;6.30;3.37;;;25.60;99.90;;;;;;5100187;27;20457;-72
2022/08/03 08:58:11;;;;;;;3.60;3.23;;;25.70;99.90;;;;;;5098653;27;20494;-72
2022/08/03 09:01:08;;;;;;;4.63;3.10;;;25.70;99.90;;;;;;5098347;27;20487;-73
2022/08/03 09:03:56;;;;;;;3.40;3.10;;;25.80;99.90;;;;;;5095874;28;20471;-72
2022/08/03 09:06:44;;;;;;;3.53;3.10;;;25.80;99.90;;;;;;5102336;28;20462;-71
2022/08/03 09:09:54;;;;;;;4.50;3.23;;;25.90;99.90;;;;;;5096067;27;20470;-71
2022/08/03 09:13:00;;;;;;;4.10;3.70;;;26.00;99.90;;;;;;5089973;28;20723;-72
2022/08/03 09:16:08;;;;;;;3.40;3.10;;;26.00;99.90;;;;;;5094024;27;21040;-71
2022/08/03 09:19:12;;;;;;;3.97;3.67;;;26.10;99.90;;;;;;5094261;28;20597;-71
2022/08/03 09:22:11;;;;;;;5.97;2.77;;;26.20;99.90;;;;;;5095254;27;20522;-71
2022/08/03 09:25:04;;;;;;;4.30;3.40;;;26.20;99.90;;;;;;5097927;27;21002;-71
2022/08/03 09:28:14;;;;;;;6.90;2.90;;;26.20;99.90;;;;;;5099037;27;20973;-72
2022/08/03 09:31:30;;;;;;;4.80;2.87;;;26.30;99.90;;;;;;5093799;28;20477;-69
2022/08/03 09:34:24;;;;;;;2.90;2.63;;;26.40;99.90;;;;;;5091400;28;20795;-71
2022/08/03 09:37:14;;;;;;;2.87;2.67;;;26.40;99.90;;;;;;5093074;27;20468;-71
2022/08/03 09:40:06;;;;;;;2.60;2.40;;;26.40;99.90;;;;;;5106518;27;20451;-70
2022/08/03 09:42:57;;;;;;;2.67;2.47;;;26.50;99.90;;;;;;5102410;27;20472;-71
2022/08/03 09:45:46;;;;;;;5.00;2.80;;;26.50;99.90;;;;;;5098238;27;20472;-71
2022/08/03 09:48:36;;;;;;;4.03;2.67;;;26.60;99.90;;;;;;5105424;27;20585;-71
2022/08/03 09:51:25;;;;;;;4.37;2.63;;;26.60;99.90;;;;;;5100959;27;20502;-71
2022/08/03 09:54:33;;;;;;;3.47;2.70;;;26.60;99.90;;;;;;5099959;27;20527;-72
2022/08/03 09:57:26;;;;;;;3.27;2.73;;;26.70;99.90;;;;;;5102197;27;20480;-72
2022/08/03 10:00:16;;;;;;;3.87;2.50;;;26.80;99.90;;;;;;5102021;27;20525;-72
2022/08/03 10:03:05;;;;;;;5.03;2.80;;;26.80;99.90;;;;;;5098309;28;20492;-71
2022/08/03 10:05:54;;;;;;;2.80;2.60;;;26.90;99.90;;;;;;5091773;28;20536;-72
2022/08/03 10:08:47;;;;;;;2.83;1.93;;;27.00;99.90;;;;;;5094013;27;20456;-73
2022/08/03 10:11:36;;;;;;;2.63;2.30;;;27.00;99.90;;;;;;5092262;28;20483;-74
2022/08/03 10:14:31;;;;;;;6.70;2.80;;;27.10;99.90;;;;;;5095768;28;20452;-73
2022/08/03 10:17:20;;;;;;;5.10;2.47;;;27.10;99.90;;;;;;5095647;27;20498;-73
2022/08/03 10:20:09;;;;;;;4.37;3.07;;;27.10;99.90;;;;;;5103043;27;20503;-73
2022/08/03 10:22:59;;;;;;;2.73;2.50;;;27.10;99.90;;;;;;5097828;27;20463;-73
2022/08/03 10:25:52;;;;;;;3.40;2.60;;;27.20;99.90;;;;;;5093629;27;20472;-73
2022/08/03 10:28:47;;;;;;;3.30;3.03;;;27.20;99.90;;;;;;5103083;27;22109;-73
2022/08/03 10:31:40;;;;;;;2.57;2.37;;;27.30;99.90;;;;;;5093185;27;20484;-73
2022/08/03 10:34:46;;;;;;;2.80;2.60;;;27.40;99.90;;;;;;5082798;28;20444;-73
2022/08/03 10:37:43;;;;;;;2.87;2.40;;;27.40;99.90;;;;;;5086728;28;20479;-73
2022/08/03 10:40:45;;;;;;;3.70;2.77;;;27.50;99.90;;;;;;5102263;27;20531;-74
2022/08/03 10:43:47;;;;;;;4.67;2.63;;;27.50;99.90;;;;;;5092444;28;20699;-74
2022/08/03 10:46:39;;;;;;;3.30;2.70;;;27.60;99.90;;;;;;5103521;27;20986;-73
2022/08/03 10:49:33;;;;;;;2.40;2.20;;;27.60;99.90;;;;;;5107049;27;20825;-73
2022/08/03 10:52:22;;;;;;;3.50;2.60;;;27.70;99.90;;;;;;5101501;27;20472;-72
2022/08/03 10:58:52;;;;;;;5.13;3.17;;;27.70;99.90;;;;;;5091928;27;20452;-73
2022/08/03 11:01:53;;;;;;;3.90;2.90;;;27.80;99.90;;;;;;5085882;28;20497;-73
2022/08/03 11:05:35;;;;;;;3.80;2.73;;;27.80;99.90;;;;;;5094298;28;20471;-73
2022/08/03 11:08:26;;;;;;;3.60;3.00;;;28.00;99.90;;;;;;5095368;27;20447;-73
2022/08/03 11:11:32;;;;;;;2.40;2.20;;;28.00;99.90;;;;;;5090157;27;20487;-73
2022/08/03 11:14:22;;;;;;;5.70;2.40;;;28.00;99.90;;;;;;5088419;27;20466;-73
2022/08/03 11:17:12;;;;;;;4.47;2.80;;;28.10;99.90;;;;;;5093773;28;20966;-73
2022/08/03 11:20:04;;;;;;;5.47;2.40;;;28.20;99.90;;;;;;5095481;28;21011;-72
2022/08/03 11:22:55;;;;;;;3.43;2.50;;;28.20;99.90;;;;;;5096534;28;20471;-72
2022/08/03 11:26:14;;;;;;;2.70;2.50;;;28.30;99.90;;;;;;5091565;28;20999;-72
2022/08/03 11:29:36;;;;;;;4.13;2.47;;;28.40;99.90;;;;;;5082816;28;20463;-72
2022/08/03 11:32:55;;;;;;;4.40;2.70;;;28.50;99.90;;;;;;4982142;28;20576;-72
2022/08/03 11:35:59;;;;;;;3.43;2.20;;;28.60;99.90;;;;;;4986763;28;20998;-72
2022/08/03 11:39:14;;;;;;;4.70;2.40;;;28.60;99.90;;;;;;5086618;28;20441;-73
2022/08/03 11:42:37;;;;;;;3.37;2.20;;;28.70;99.90;;;;;;5090108;28;20842;-72
2022/08/03 11:45:26;;;;;;;3.10;2.30;;;28.90;99.90;;;;;;5071783;28;21026;-72
2022/08/03 11:48:17;;;;;;;4.80;2.80;;;29.00;99.90;;;;;;5074842;28;20453;-72
2022/08/03 11:51:07;;;;;;;3.60;2.27;;;29.10;99.90;;;;;;5082714;28;20472;-73
2022/08/03 11:53:57;;;;;;;3.63;2.97;;;29.10;99.90;;;;;;5090718;28;20542;-73
2022/08/03 11:56:46;;;;;;;2.77;2.33;;;29.20;99.90;;;;;;5085882;28;20597;-72
2022/08/03 11:59:38;;;;;;;2.60;2.30;;;29.30;99.90;;;;;;5095134;28;20455;-73
2022/08/03 12:02:26;;;;;;;3.70;2.27;;;29.40;99.90;;;;;;5093830;28;20482;-73
2022/08/03 12:05:17;;;;;;;3.17;2.50;;;29.50;99.90;;;;;;5105094;27;21022;-72
2022/08/03 12:08:06;;;;;;;2.40;2.17;;;29.50;99.90;;;;;;5106099;27;20449;-73
2022/08/03 12:10:57;;;;;;;3.20;2.13;;;29.60;99.90;;;;;;5106978;27;20467;-73
2022/08/03 12:13:47;;;;;;;3.20;2.33;;;29.70;99.90;;;;;;5098975;27;20460;-72
2022/08/03 12:16:55;;;;;;;3.67;2.20;;;29.80;99.90;;;;;;5100896;27;20555;-73
2022/08/03 12:19:50;;;;;;;4.37;2.13;;;29.90;99.90;;;;;;5101703;27;20531;-72
2022/08/03 12:22:45;;;;;;;2.93;1.87;;;30.00;99.90;;;;;;5100217;28;20472;-72
2022/08/03 12:25:34;;;;;;;4.77;2.10;;;30.10;99.90;;;;;;5100924;28;20475;-72
2022/08/03 12:28:27;;;;;;;3.20;2.13;;;30.20;99.90;;;;;;5100120;28;20956;-73
2022/08/03 12:31:25;;;;;;;3.00;2.30;;;30.30;99.90;;;;;;5100725;28;20467;-73
2022/08/03 12:34:14;;;;;;;3.20;2.20;;;30.40;99.90;;;;;;5098136;27;20479;-73
2022/08/03 12:37:05;;;;;;;4.87;2.33;;;30.40;99.90;;;;;;5103273;28;20447;-73
2022/08/03 12:40:14;;;;;;;4.07;2.60;;;30.50;99.90;;;;;;5103610;27;20574;-73
2022/08/03 12:43:12;;;;;;;3.80;2.43;;;30.60;99.90;;;;;;5099735;28;20447;-73
2022/08/03 12:46:11;;;;;;;3.53;2.50;;;30.80;99.90;;;;;;5093904;28;20480;-73
2022/08/03 12:49:10;;;;;;;2.10;1.97;;;30.90;99.90;;;;;;5093022;27;20534;-73
2022/08/03 12:52:00;;;;;;;5.43;2.20;;;31.00;99.90;;;;;;5096147;28;20486;-73
2022/08/03 12:54:56;;;;;;;3.27;2.37;;;31.20;99.90;;;;;;5097954;27;20457;-72
2022/08/03 12:57:45;;;;;;;3.80;2.20;;;31.20;99.90;;;;;;5108660;27;20746;-74
2022/08/03 13:00:34;;;;;;;2.60;2.33;;;31.20;99.90;;;;;;5098867;28;20563;-73
2022/08/03 13:03:24;;;;;;;4.30;2.47;;;31.30;99.90;;;;;;5116259;27;20464;-72
2022/08/03 13:06:27;;;;;;;3.17;2.07;;;31.40;99.90;;;;;;5118098;27;21081;-73
2022/08/03 13:09:16;;;;;;;4.83;2.53;;;31.50;99.90;;;;;;5109926;27;20505;-73
2022/08/03 13:12:07;;;;;;;3.90;2.43;;;31.70;99.90;;;;;;5101176;27;20474;-73
2022/08/03 13:14:59;;;;;;;5.23;2.10;;;31.80;99.90;;;;;;5091215;28;20911;-73
2022/08/03 13:17:47;;;;;;;4.27;2.50;;;31.90;99.90;;;;;;5087468;28;20964;-73
2022/08/03 13:20:36;;;;;;;3.50;2.40;;;31.90;99.90;;;;;;5086918;27;20443;-73
2022/08/03 13:23:24;;;;;;;2.97;2.77;;;32.00;99.90;;;;;;5091585;27;20588;-74
2022/08/03 13:26:13;;;;;;;8.23;2.23;;;32.10;99.90;;;;;;5100753;27;20988;-73
2022/08/03 13:29:02;;;;;;;3.23;2.10;;;32.20;99.90;;;;;;5084439;27;21020;-75
2022/08/03 13:31:52;;;;;;;5.97;2.33;;;32.30;99.90;;;;;;5073663;27;20566;-73
2022/08/03 13:34:40;;;;;;;2.83;2.27;;;32.40;99.90;;;;;;5078978;28;20472;-73
2022/08/03 13:37:30;;;;;;;2.70;2.30;;;32.60;99.90;;;;;;5096094;27;21060;-72
2022/08/03 13:40:19;;;;;;;4.83;2.50;;;32.60;99.90;;;;;;5089146;27;20817;-73
2022/08/03 13:43:11;;;;;;;2.50;2.30;;;32.80;99.90;;;;;;5086389;28;20453;-72
2022/08/03 13:45:59;;;;;;;3.57;2.13;;;33.00;99.90;;;;;;5087548;27;20582;-71
2022/08/03 13:48:49;;;;;;;5.07;2.90;;;33.00;99.90;;;;;;5084696;28;20653;-73
2022/08/03 13:51:37;;;;;;;2.67;2.47;;;33.10;99.90;;;;;;5090502;28;20471;-72
2022/08/03 13:54:26;;;;;;;4.83;2.57;;;33.20;99.90;;;;;;5089447;28;21337;-74
2022/08/03 13:57:14;;;;;;;3.50;2.37;;;33.40;99.90;;;;;;5103276;27;20601;-74
2022/08/03 14:00:24;;;;;;;2.80;2.23;;;33.50;99.90;;;;;;5086427;28;20469;-73
2022/08/03 14:03:15;;;;;;;4.10;2.70;;;33.60;99.90;;;;;;5102726;22;20552;-71
2022/08/03 14:06:05;;;;;;;3.27;2.37;;;33.60;99.90;;;;;;5094852;27;21136;-71
2022/08/03 14:08:54;;;;;;;2.90;2.57;;;33.70;99.90;;;;;;5090713;28;20549;-71
2022/08/03 14:11:48;;;;;;;2.17;2.00;;;33.70;99.90;;;;;;5091162;27;20488;-71
2022/08/03 14:14:55;;;;;;;4.90;2.87;;;33.90;99.90;;;;;;5088085;28;21340;-71
2022/08/03 14:17:48;;;;;;;4.00;2.93;;;34.10;99.90;;;;;;5101477;28;20448;-73
2022/08/03 14:20:37;;;;;;;2.63;2.43;;;34.10;99.90;;;;;;5094007;28;20470;-75
2022/08/03 14:23:41;;;;;;;4.83;2.00;;;34.40;99.90;;;;;;5078277;27;20482;-75
2022/08/03 14:26:31;;;;;;;6.33;2.57;;;34.90;99.90;;;;;;5085615;27;20472;-75
2022/08/03 14:29:20;;;;;;;2.53;2.30;;;35.10;99.90;;;;;;5082112;27;20854;-76
2022/08/03 14:32:08;;;;;;;5.13;2.60;;;35.30;99.90;;;;;;5082869;27;21198;-74
2022/08/03 14:35:01;;;;;;;2.60;2.40;;;;;;;;;;5086601;27;20474;-73
2022/08/03 14:37:50;;;;;;;2.63;2.40;;;;;;;;;;5080698;27;21060;-71
2022/08/03 14:40:40;;;;;;;4.03;2.37;;;;;;;;;;5082370;27;20716;-76
2022/08/03 14:43:29;;;;;;;2.22;2.03;;;;;;;;;;5086580;28;20216;-75
2022/08/03 14:46:21;;;;;;;3.65;2.22;;;;;;;;;;5091964;27;20221;-76
2022/08/03 14:49:10;;;;;;;4.00;2.53;;;;;;;;;;5092274;27;21565;-70
2022/08/03 14:52:18;;;;;;;2.25;2.05;;;;;;;;;;5097203;28;20289;-72
2022/08/03 14:55:07;;;;;;;5.45;2.45;;;;;;;;;;5094829;27;20242;-71
2022/08/03 14:57:58;;;;;;;3.63;2.85;;;;;;;;;;5069852;28;20283;-71
2022/08/03 15:00:48;;;;;;;3.40;2.23;;;;;;;;;;5078087;28;20922;-71
2022/08/03 15:03:37;;;;;;;3.70;2.30;;;;;;;;;;5080778;28;20225;-71
2022/08/03 15:06:25;;;;;;;3.20;2.40;;;;;;;;;;5090257;28;20518;-70
2022/08/03 15:09:14;;;;;;;2.23;2.00;;;;;;;;;;5076611;28;20456;-71